sensor_id;sensor_type;location;lat;lon;timestamp;pressure;altitude;pressure_sealevel;temperature;humidity
41690;BME280;27372;42.658;23.256;2023-07-29T00:00:30;93710.91;;;19.42;59.11
41690;BME280;27372;42.658;23.256;2023-07-29T00:02:55;93715.47;;;19.22;60.05
41690;BME280;27372;42.658;23.256;2023-07-29T00:05:21;93712.50;;;19.57;59.14
41690;BME280;27372;42.658;23.256;2023-07-29T00:07:46;93708.16;;;19.14;60.33
41690;BME280;27372;42.658;23.256;2023-07-29T00:10:11;93714.44;;;19.37;59.49
41690;BME280;27372;42.658;23.256;2023-07-29T00:12:37;93719.34;;;19.30;59.98
41690;BME280;27372;42.658;23.256;2023-07-29T00:15:02;93718.50;;;19.49;59.32
41690;BME280;27372;42.658;23.256;2023-07-29T00:17:27;93714.06;;;19.58;58.97
41690;BME280;27372;42.658;23.256;2023-07-29T00:19:52;93705.88;;;19.07;60.30
41690;BME280;27372;42.658;23.256;2023-07-29T00:22:18;93711.59;;;18.82;61.62
41690;BME280;27372;42.658;23.256;2023-07-29T00:24:43;93711.84;;;18.80;62.29
41690;BME280;27372;42.658;23.256;2023-07-29T00:27:08;93704.28;;;19.06;61.47
41690;BME280;27372;42.658;23.256;2023-07-29T00:29:34;93704.44;;;19.15;60.62
41690;BME280;27372;42.658;23.256;2023-07-29T00:31:59;93699.78;;;19.07;61.48
41690;BME280;27372;42.658;23.256;2023-07-29T00:34:27;93701.84;;;19.10;61.34
41690;BME280;27372;42.658;23.256;2023-07-29T00:36:52;93696.25;;;19.12;61.54
41690;BME280;27372;42.658;23.256;2023-07-29T00:39:34;93699.00;;;19.20;61.84
41690;BME280;27372;42.658;23.256;2023-07-29T00:42:03;93702.81;;;19.00;62.11
41690;BME280;27372;42.658;23.256;2023-07-29T00:44:29;93705.84;;;18.93;62.45
41690;BME280;27372;42.658;23.256;2023-07-29T00:47:10;93693.25;;;18.99;62.67
41690;BME280;27372;42.658;23.256;2023-07-29T00:49:36;93689.78;;;18.80;63.02
41690;BME280;27372;42.658;23.256;2023-07-29T00:52:01;93699.25;;;18.86;62.14
41690;BME280;27372;42.658;23.256;2023-07-29T00:54:27;93694.03;;;18.81;62.11
41690;BME280;27372;42.658;23.256;2023-07-29T00:56:52;93697.31;;;18.91;62.38
41690;BME280;27372;42.658;23.256;2023-07-29T00:59:20;93689.91;;;18.88;62.76
41690;BME280;27372;42.658;23.256;2023-07-29T01:01:45;93692.22;;;18.95;62.45
41690;BME280;27372;42.658;23.256;2023-07-29T01:04:12;93689.66;;;18.71;63.52
41690;BME280;27372;42.658;23.256;2023-07-29T01:06:44;93689.00;;;18.98;62.54
41690;BME280;27372;42.658;23.256;2023-07-29T01:14:34;93685.84;;;19.29;61.04
41690;BME280;27372;42.658;23.256;2023-07-29T01:17:03;93688.13;;;19.36;61.98
41690;BME280;27372;42.658;23.256;2023-07-29T01:22:13;93691.59;;;18.65;63.48
41690;BME280;27372;42.658;23.256;2023-07-29T01:24:38;93692.25;;;18.57;64.49
41690;BME280;27372;42.658;23.256;2023-07-29T01:27:04;93689.31;;;18.39;65.09
41690;BME280;27372;42.658;23.256;2023-07-29T01:29:30;93690.47;;;18.71;64.21
41690;BME280;27372;42.658;23.256;2023-07-29T01:31:56;93695.78;;;18.71;63.95
41690;BME280;27372;42.658;23.256;2023-07-29T01:34:29;93692.50;;;18.74;63.80
41690;BME280;27372;42.658;23.256;2023-07-29T01:36:57;93689.59;;;18.76;63.89
41690;BME280;27372;42.658;23.256;2023-07-29T01:39:29;93697.28;;;18.58;64.65
41690;BME280;27372;42.658;23.256;2023-07-29T01:42:00;93696.19;;;18.59;64.83
41690;BME280;27372;42.658;23.256;2023-07-29T01:44:27;93692.59;;;18.69;64.24
41690;BME280;27372;42.658;23.256;2023-07-29T01:46:52;93685.81;;;18.00;66.84
41690;BME280;27372;42.658;23.256;2023-07-29T01:49:23;93691.41;;;17.75;68.69
41690;BME280;27372;42.658;23.256;2023-07-29T01:51:51;93687.22;;;17.68;68.35
41690;BME280;27372;42.658;23.256;2023-07-29T01:54:16;93686.88;;;17.75;67.90
41690;BME280;27372;42.658;23.256;2023-07-29T01:56:41;93683.31;;;17.61;69.32
41690;BME280;27372;42.658;23.256;2023-07-29T01:59:09;93686.03;;;18.04;66.97
41690;BME280;27372;42.658;23.256;2023-07-29T02:01:45;93681.09;;;18.16;66.20
41690;BME280;27372;42.658;23.256;2023-07-29T02:04:14;93685.72;;;18.30;65.77
41690;BME280;27372;42.658;23.256;2023-07-29T02:06:39;93687.50;;;18.54;64.67
41690;BME280;27372;42.658;23.256;2023-07-29T02:09:05;93691.22;;;18.53;65.06
41690;BME280;27372;42.658;23.256;2023-07-29T02:11:40;93690.66;;;18.56;65.17
41690;BME280;27372;42.658;23.256;2023-07-29T02:14:08;93687.69;;;18.19;67.07
41690;BME280;27372;42.658;23.256;2023-07-29T02:16:39;93681.09;;;18.16;66.99
41690;BME280;27372;42.658;23.256;2023-07-29T02:19:05;93687.13;;;18.22;67.42
41690;BME280;27372;42.658;23.256;2023-07-29T02:21:31;93685.97;;;18.28;68.01
41690;BME280;27372;42.658;23.256;2023-07-29T02:23:56;93696.56;;;18.34;68.06
41690;BME280;27372;42.658;23.256;2023-07-29T02:26:22;93690.50;;;18.09;68.96
41690;BME280;27372;42.658;23.256;2023-07-29T02:28:49;93690.94;;;17.92;69.39
41690;BME280;27372;42.658;23.256;2023-07-29T02:31:16;93693.78;;;17.76;70.14
41690;BME280;27372;42.658;23.256;2023-07-29T02:33:59;93698.44;;;17.84;69.38
41690;BME280;27372;42.658;23.256;2023-07-29T02:36:25;93691.44;;;17.45;71.23
41690;BME280;27372;42.658;23.256;2023-07-29T02:38:50;93689.81;;;17.49;71.04
41690;BME280;27372;42.658;23.256;2023-07-29T02:41:16;93691.47;;;17.40;71.27
41690;BME280;27372;42.658;23.256;2023-07-29T02:43:47;93686.16;;;17.40;71.09
41690;BME280;27372;42.658;23.256;2023-07-29T02:46:16;93691.47;;;17.40;71.52
41690;BME280;27372;42.658;23.256;2023-07-29T02:48:42;93699.44;;;17.40;71.20
41690;BME280;27372;42.658;23.256;2023-07-29T02:51:10;93692.59;;;17.34;71.38
41690;BME280;27372;42.658;23.256;2023-07-29T02:53:35;93698.00;;;17.23;71.36
41690;BME280;27372;42.658;23.256;2023-07-29T02:56:04;93692.47;;;17.49;70.83
41690;BME280;27372;42.658;23.256;2023-07-29T02:58:29;93703.03;;;17.79;69.84
41690;BME280;27372;42.658;23.256;2023-07-29T03:01:01;93694.66;;;17.91;69.47
41690;BME280;27372;42.658;23.256;2023-07-29T03:03:27;93704.19;;;17.97;69.34
41690;BME280;27372;42.658;23.256;2023-07-29T03:05:57;93707.84;;;18.01;69.17
41690;BME280;27372;42.658;23.256;2023-07-29T03:08:22;93706.88;;;17.92;69.03
41690;BME280;27372;42.658;23.256;2023-07-29T03:10:47;93704.63;;;17.80;68.96
41690;BME280;27372;42.658;23.256;2023-07-29T03:13:19;93714.56;;;17.45;71.04
41690;BME280;27372;42.658;23.256;2023-07-29T03:15:45;93714.66;;;17.34;70.86
41690;BME280;27372;42.658;23.256;2023-07-29T03:18:11;93714.81;;;17.43;70.43
41690;BME280;27372;42.658;23.256;2023-07-29T03:20:39;93714.94;;;17.81;69.73
41690;BME280;27372;42.658;23.256;2023-07-29T03:23:04;93700.59;;;18.07;69.37
41690;BME280;27372;42.658;23.256;2023-07-29T03:25:30;93718.50;;;17.96;69.72
41690;BME280;27372;42.658;23.256;2023-07-29T03:27:56;93713.50;;;18.19;68.50
41690;BME280;27372;42.658;23.256;2023-07-29T03:30:25;93716.72;;;18.15;68.00
41690;BME280;27372;42.658;23.256;2023-07-29T03:32:53;93714.06;;;17.67;70.71
41690;BME280;27372;42.658;23.256;2023-07-29T03:35:21;93708.78;;;17.62;70.82
41690;BME280;27372;42.658;23.256;2023-07-29T03:37:46;93714.78;;;17.73;69.93
41690;BME280;27372;42.658;23.256;2023-07-29T03:40:12;93706.09;;;18.15;69.00
41690;BME280;27372;42.658;23.256;2023-07-29T03:42:37;93702.88;;;18.19;69.78
41690;BME280;27372;42.658;23.256;2023-07-29T03:45:24;93706.25;;;18.43;69.30
41690;BME280;27372;42.658;23.256;2023-07-29T03:48:03;93708.91;;;18.62;67.31
41690;BME280;27372;42.658;23.256;2023-07-29T03:50:37;93705.09;;;18.69;68.10
41690;BME280;27372;42.658;23.256;2023-07-29T03:53:11;93710.63;;;18.72;68.03
41690;BME280;27372;42.658;23.256;2023-07-29T03:55:37;93716.03;;;18.67;68.25
41690;BME280;27372;42.658;23.256;2023-07-29T03:58:02;93710.94;;;18.52;69.53
41690;BME280;27372;42.658;23.256;2023-07-29T04:00:27;93700.72;;;18.59;69.09
41690;BME280;27372;42.658;23.256;2023-07-29T04:02:54;93712.22;;;18.73;68.01
41690;BME280;27372;42.658;23.256;2023-07-29T04:05:19;93725.25;;;18.75;67.99
41690;BME280;27372;42.658;23.256;2023-07-29T04:07:44;93723.16;;;18.91;67.39
41690;BME280;27372;42.658;23.256;2023-07-29T04:10:12;93725.31;;;18.89;66.71
41690;BME280;27372;42.658;23.256;2023-07-29T04:12:38;93717.97;;;19.00;66.23
41690;BME280;27372;42.658;23.256;2023-07-29T04:15:03;93719.84;;;18.61;67.23
41690;BME280;27372;42.658;23.256;2023-07-29T04:17:29;93723.28;;;19.00;66.28
41690;BME280;27372;42.658;23.256;2023-07-29T04:19:54;93724.59;;;19.02;66.12
41690;BME280;27372;42.658;23.256;2023-07-29T04:22:19;93718.88;;;19.09;65.43
41690;BME280;27372;42.658;23.256;2023-07-29T04:24:44;93728.97;;;19.45;72.34
41690;BME280;27372;42.658;23.256;2023-07-29T04:27:10;93714.63;;;20.67;70.28
41690;BME280;27372;42.658;23.256;2023-07-29T04:29:35;93726.66;;;21.69;64.37
41690;BME280;27372;42.658;23.256;2023-07-29T04:32:01;93724.75;;;22.01;58.96
41690;BME280;27372;42.658;23.256;2023-07-29T04:34:26;93725.94;;;22.35;56.37
41690;BME280;27372;42.658;23.256;2023-07-29T04:36:51;93729.19;;;22.90;55.04
41690;BME280;27372;42.658;23.256;2023-07-29T04:39:17;93732.31;;;23.36;52.94
41690;BME280;27372;42.658;23.256;2023-07-29T04:41:43;93730.41;;;23.54;52.21
41690;BME280;27372;42.658;23.256;2023-07-29T04:44:13;93729.31;;;23.55;51.75
41690;BME280;27372;42.658;23.256;2023-07-29T04:46:38;93726.50;;;23.99;49.50
41690;BME280;27372;42.658;23.256;2023-07-29T04:49:04;93729.66;;;24.01;50.01
41690;BME280;27372;42.658;23.256;2023-07-29T04:51:29;93727.44;;;24.33;48.41
41690;BME280;27372;42.658;23.256;2023-07-29T04:53:56;93741.34;;;24.35;48.93
41690;BME280;27372;42.658;23.256;2023-07-29T04:56:22;93735.31;;;24.38;48.46
41690;BME280;27372;42.658;23.256;2023-07-29T04:58:47;93740.63;;;24.47;48.78
41690;BME280;27372;42.658;23.256;2023-07-29T05:01:12;93742.28;;;24.60;48.04
41690;BME280;27372;42.658;23.256;2023-07-29T05:03:38;93744.47;;;24.67;47.34
41690;BME280;27372;42.658;23.256;2023-07-29T05:06:04;93749.69;;;24.63;47.20
41690;BME280;27372;42.658;23.256;2023-07-29T05:08:30;93753.63;;;24.66;47.60
41690;BME280;27372;42.658;23.256;2023-07-29T05:10:55;93754.97;;;24.81;47.23
41690;BME280;27372;42.658;23.256;2023-07-29T05:13:24;93756.47;;;24.91;46.68
41690;BME280;27372;42.658;23.256;2023-07-29T05:15:49;93756.47;;;24.91;46.52
41690;BME280;27372;42.658;23.256;2023-07-29T05:18:15;93756.41;;;25.21;45.86
41690;BME280;27372;42.658;23.256;2023-07-29T05:20:43;93760.81;;;25.04;46.27
41690;BME280;27372;42.658;23.256;2023-07-29T05:23:12;93759.22;;;25.24;46.21
41690;BME280;27372;42.658;23.256;2023-07-29T05:25:37;93755.13;;;25.39;45.84
41690;BME280;27372;42.658;23.256;2023-07-29T05:28:03;93758.22;;;25.29;45.28
41690;BME280;27372;42.658;23.256;2023-07-29T05:30:28;93758.03;;;25.34;45.26
41690;BME280;27372;42.658;23.256;2023-07-29T05:32:58;93761.34;;;25.40;45.64
41690;BME280;27372;42.658;23.256;2023-07-29T05:35:24;93755.31;;;25.43;45.40
41690;BME280;27372;42.658;23.256;2023-07-29T05:37:49;93761.91;;;25.46;45.14
41690;BME280;27372;42.658;23.256;2023-07-29T05:40:15;93769.88;;;25.54;45.33
41690;BME280;27372;42.658;23.256;2023-07-29T05:42:40;93762.50;;;25.51;45.31
41690;BME280;27372;42.658;23.256;2023-07-29T05:45:09;93766.94;;;25.81;44.62
41690;BME280;27372;42.658;23.256;2023-07-29T05:47:34;93766.81;;;25.77;44.60
41690;BME280;27372;42.658;23.256;2023-07-29T05:50:03;93777.00;;;25.71;44.71
41690;BME280;27372;42.658;23.256;2023-07-29T05:52:36;93763.81;;;25.79;44.82
41690;BME280;27372;42.658;23.256;2023-07-29T05:55:01;93766.56;;;25.70;44.63
41690;BME280;27372;42.658;23.256;2023-07-29T05:57:30;93765.84;;;25.94;44.20
41690;BME280;27372;42.658;23.256;2023-07-29T05:59:58;93775.38;;;25.92;44.49
41690;BME280;27372;42.658;23.256;2023-07-29T06:02:23;93775.03;;;25.93;43.88
41690;BME280;27372;42.658;23.256;2023-07-29T06:04:49;93770.06;;;25.83;43.88
41690;BME280;27372;42.658;23.256;2023-07-29T06:07:14;93774.50;;;25.33;44.52
41690;BME280;27372;42.658;23.256;2023-07-29T06:09:40;93776.50;;;24.93;45.92
41690;BME280;27372;42.658;23.256;2023-07-29T06:12:05;93770.69;;;25.12;45.74
41690;BME280;27372;42.658;23.256;2023-07-29T06:14:31;93772.66;;;25.46;45.00
41690;BME280;27372;42.658;23.256;2023-07-29T06:16:56;93769.81;;;25.63;44.72
41690;BME280;27372;42.658;23.256;2023-07-29T06:19:21;93754.94;;;25.78;44.39
41690;BME280;27372;42.658;23.256;2023-07-29T06:21:46;93760.81;;;26.05;43.69
41690;BME280;27372;42.658;23.256;2023-07-29T06:24:15;93751.19;;;26.16;43.07
41690;BME280;27372;42.658;23.256;2023-07-29T06:26:40;93752.22;;;26.12;43.04
41690;BME280;27372;42.658;23.256;2023-07-29T06:29:05;93752.81;;;25.84;43.95
41690;BME280;27372;42.658;23.256;2023-07-29T06:31:31;93748.56;;;25.83;44.52
41690;BME280;27372;42.658;23.256;2023-07-29T06:33:57;93750.72;;;26.02;47.83
41690;BME280;27372;42.658;23.256;2023-07-29T06:36:23;93740.00;;;26.14;47.52
41690;BME280;27372;42.658;23.256;2023-07-29T06:38:48;93752.34;;;26.28;46.72
41690;BME280;27372;42.658;23.256;2023-07-29T06:41:13;93745.50;;;26.43;46.61
41690;BME280;27372;42.658;23.256;2023-07-29T06:43:39;93745.72;;;26.38;46.79
41690;BME280;27372;42.658;23.256;2023-07-29T06:46:04;93739.56;;;26.12;45.59
41690;BME280;27372;42.658;23.256;2023-07-29T06:48:29;93745.59;;;26.09;46.18
41690;BME280;27372;42.658;23.256;2023-07-29T06:50:55;93739.03;;;25.85;44.91
41690;BME280;27372;42.658;23.256;2023-07-29T06:53:25;93745.88;;;25.83;46.09
41690;BME280;27372;42.658;23.256;2023-07-29T06:55:50;93753.47;;;26.14;44.49
41690;BME280;27372;42.658;23.256;2023-07-29T06:58:15;93751.00;;;26.22;45.01
41690;BME280;27372;42.658;23.256;2023-07-29T07:00:44;93750.31;;;26.49;44.13
41690;BME280;27372;42.658;23.256;2023-07-29T07:03:11;93752.06;;;26.08;44.06
41690;BME280;27372;42.658;23.256;2023-07-29T07:05:36;93757.34;;;25.58;45.46
41690;BME280;27372;42.658;23.256;2023-07-29T07:08:01;93755.06;;;25.82;45.15
41690;BME280;27372;42.658;23.256;2023-07-29T07:10:35;93745.81;;;26.04;44.71
41690;BME280;27372;42.658;23.256;2023-07-29T07:13:04;93747.94;;;26.11;43.20
41690;BME280;27372;42.658;23.256;2023-07-29T07:15:29;93739.56;;;26.12;43.81
41690;BME280;27372;42.658;23.256;2023-07-29T07:17:54;93746.34;;;25.97;44.38
41690;BME280;27372;42.658;23.256;2023-07-29T07:20:19;93741.00;;;25.51;44.97
41690;BME280;27372;42.658;23.256;2023-07-29T07:22:45;93747.34;;;25.80;43.45
41690;BME280;27372;42.658;23.256;2023-07-29T07:25:10;93751.03;;;26.00;44.87
41690;BME280;27372;42.658;23.256;2023-07-29T07:27:36;93745.25;;;25.65;43.54
41690;BME280;27372;42.658;23.256;2023-07-29T07:30:02;93732.44;;;25.83;43.70
41690;BME280;27372;42.658;23.256;2023-07-29T07:32:27;93748.50;;;26.16;43.88
41690;BME280;27372;42.658;23.256;2023-07-29T07:34:52;93741.56;;;26.28;43.54
41690;BME280;27372;42.658;23.256;2023-07-29T07:37:18;93739.22;;;26.14;43.77
41690;BME280;27372;42.658;23.256;2023-07-29T07:39:45;93734.06;;;26.58;42.92
41690;BME280;27372;42.658;23.256;2023-07-29T07:42:14;93737.25;;;26.89;40.46
41690;BME280;27372;42.658;23.256;2023-07-29T07:44:39;93738.31;;;27.12;40.87
41690;BME280;27372;42.658;23.256;2023-07-29T07:47:10;93739.25;;;27.33;40.55
41690;BME280;27372;42.658;23.256;2023-07-29T07:49:36;93735.72;;;27.16;40.75
41690;BME280;27372;42.658;23.256;2023-07-29T07:52:01;93742.09;;;27.24;40.16
41690;BME280;27372;42.658;23.256;2023-07-29T07:54:26;93739.47;;;27.40;39.43
41690;BME280;27372;42.658;23.256;2023-07-29T07:56:51;93731.88;;;27.30;39.97
41690;BME280;27372;42.658;23.256;2023-07-29T07:59:27;93735.50;;;27.21;39.81
41690;BME280;27372;42.658;23.256;2023-07-29T08:01:53;93740.53;;;27.23;40.22
41690;BME280;27372;42.658;23.256;2023-07-29T08:04:21;93736.91;;;27.31;40.36
41690;BME280;27372;42.658;23.256;2023-07-29T08:06:46;93741.66;;;27.22;40.13
41690;BME280;27372;42.658;23.256;2023-07-29T08:09:11;93731.44;;;27.27;40.07
41690;BME280;27372;42.658;23.256;2023-07-29T08:11:37;93745.03;;;27.19;40.31
41690;BME280;27372;42.658;23.256;2023-07-29T08:14:02;93747.25;;;27.29;39.52
41690;BME280;27372;42.658;23.256;2023-07-29T08:16:27;93744.81;;;27.24;39.04
41690;BME280;27372;42.658;23.256;2023-07-29T08:18:53;93745.31;;;27.01;38.86
41690;BME280;27372;42.658;23.256;2023-07-29T08:21:18;93744.72;;;27.20;39.91
41690;BME280;27372;42.658;23.256;2023-07-29T08:23:43;93741.09;;;27.57;39.58
41690;BME280;27372;42.658;23.256;2023-07-29T08:26:08;93746.69;;;27.23;39.36
41690;BME280;27372;42.658;23.256;2023-07-29T08:30:59;93747.91;;;26.97;39.91
41690;BME280;27372;42.658;23.256;2023-07-29T08:33:28;93746.69;;;27.64;37.73
41690;BME280;27372;42.658;23.256;2023-07-29T08:35:53;93746.00;;;27.99;37.37
41690;BME280;27372;42.658;23.256;2023-07-29T08:38:19;93739.88;;;27.70;36.95
41690;BME280;27372;42.658;23.256;2023-07-29T08:43:27;93738.91;;;28.23;36.75
41690;BME280;27372;42.658;23.256;2023-07-29T08:45:53;93746.06;;;28.67;35.64
41690;BME280;27372;42.658;23.256;2023-07-29T08:48:19;93739.56;;;27.88;35.35
41690;BME280;27372;42.658;23.256;2023-07-29T08:50:49;93728.97;;;27.95;36.33
41690;BME280;27372;42.658;23.256;2023-07-29T08:53:16;93729.28;;;28.58;36.10
41690;BME280;27372;42.658;23.256;2023-07-29T08:55:41;93727.03;;;28.95;35.07
41690;BME280;27372;42.658;23.256;2023-07-29T08:58:09;93720.34;;;29.48;33.79
41690;BME280;27372;42.658;23.256;2023-07-29T09:00:34;93726.22;;;28.95;33.46
41690;BME280;27372;42.658;23.256;2023-07-29T09:03:00;93725.66;;;29.05;34.06
41690;BME280;27372;42.658;23.256;2023-07-29T09:05:40;93729.00;;;29.34;33.86
41690;BME280;27372;42.658;23.256;2023-07-29T09:08:07;93726.72;;;29.20;32.82
41690;BME280;27372;42.658;23.256;2023-07-29T09:10:44;93716.34;;;29.62;32.03
41690;BME280;27372;42.658;23.256;2023-07-29T09:13:10;93712.25;;;29.48;31.93
41690;BME280;27372;42.658;23.256;2023-07-29T09:15:35;93708.44;;;29.96;31.02
41690;BME280;27372;42.658;23.256;2023-07-29T09:18:11;93705.63;;;30.12;30.72
41690;BME280;27372;42.658;23.256;2023-07-29T09:20:47;93710.06;;;30.50;30.31
41690;BME280;27372;42.658;23.256;2023-07-29T09:23:12;93712.88;;;30.85;29.22
41690;BME280;27372;42.658;23.256;2023-07-29T09:25:41;93703.94;;;30.03;30.82
41690;BME280;27372;42.658;23.256;2023-07-29T09:28:13;93711.16;;;28.58;31.45
41690;BME280;27372;42.658;23.256;2023-07-29T09:30:39;93700.50;;;29.21;31.68
41690;BME280;27372;42.658;23.256;2023-07-29T09:33:10;93700.84;;;29.58;30.82
41690;BME280;27372;42.658;23.256;2023-07-29T09:35:37;93697.44;;;29.42;31.69
41690;BME280;27372;42.658;23.256;2023-07-29T09:38:03;93701.22;;;29.37;31.89
41690;BME280;27372;42.658;23.256;2023-07-29T09:40:33;93693.56;;;29.63;31.64
41690;BME280;27372;42.658;23.256;2023-07-29T09:42:59;93688.84;;;29.79;31.45
41690;BME280;27372;42.658;23.256;2023-07-29T09:45:25;93683.59;;;30.13;31.00
41690;BME280;27372;42.658;23.256;2023-07-29T09:47:51;93686.34;;;29.47;31.27
41690;BME280;27372;42.658;23.256;2023-07-29T09:50:17;93685.59;;;29.70;30.42
41690;BME280;27372;42.658;23.256;2023-07-29T09:52:42;93685.28;;;30.48;30.08
41690;BME280;27372;42.658;23.256;2023-07-29T09:55:09;93686.25;;;30.60;29.96
41690;BME280;27372;42.658;23.256;2023-07-29T09:57:35;93689.97;;;30.78;29.27
41690;BME280;27372;42.658;23.256;2023-07-29T10:00:01;93683.00;;;31.08;29.69
41690;BME280;27372;42.658;23.256;2023-07-29T10:02:29;93674.81;;;31.38;28.97
41690;BME280;27372;42.658;23.256;2023-07-29T10:04:55;93678.41;;;31.87;27.95
41690;BME280;27372;42.658;23.256;2023-07-29T10:07:21;93685.06;;;31.94;27.62
41690;BME280;27372;42.658;23.256;2023-07-29T10:09:51;93673.25;;;31.37;29.12
41690;BME280;27372;42.658;23.256;2023-07-29T10:12:17;93671.09;;;31.54;29.94
41690;BME280;27372;42.658;23.256;2023-07-29T10:14:42;93675.69;;;32.32;28.62
41690;BME280;27372;42.658;23.256;2023-07-29T10:17:07;93671.59;;;31.63;28.79
41690;BME280;27372;42.658;23.256;2023-07-29T10:19:43;93655.94;;;31.49;27.33
41690;BME280;27372;42.658;23.256;2023-07-29T10:22:10;93662.66;;;31.25;28.79
41690;BME280;27372;42.658;23.256;2023-07-29T10:24:39;93666.16;;;32.04;27.53
41690;BME280;27372;42.658;23.256;2023-07-29T10:27:06;93651.94;;;31.73;28.20
41690;BME280;27372;42.658;23.256;2023-07-29T10:29:32;93649.16;;;32.15;26.33
41690;BME280;27372;42.658;23.256;2023-07-29T10:32:01;93653.13;;;32.28;26.32
41690;BME280;27372;42.658;23.256;2023-07-29T10:34:27;93643.47;;;33.08;25.42
41690;BME280;27372;42.658;23.256;2023-07-29T10:36:53;93640.66;;;32.79;25.07
41690;BME280;27372;42.658;23.256;2023-07-29T10:39:20;93643.16;;;33.32;24.83
41690;BME280;27372;42.658;23.256;2023-07-29T10:41:59;93641.72;;;33.96;24.58
41690;BME280;27372;42.658;23.256;2023-07-29T10:49:40;93634.69;;;34.09;24.29
41690;BME280;27372;42.658;23.256;2023-07-29T10:52:06;93631.22;;;34.12;23.68
41690;BME280;27372;42.658;23.256;2023-07-29T10:54:31;93630.63;;;33.05;24.77
41690;BME280;27372;42.658;23.256;2023-07-29T10:57:06;93621.06;;;33.51;24.21
41690;BME280;27372;42.658;23.256;2023-07-29T10:59:32;93617.56;;;33.69;24.38
41690;BME280;27372;42.658;23.256;2023-07-29T11:01:58;93619.09;;;33.44;24.01
41690;BME280;27372;42.658;23.256;2023-07-29T11:04:24;93607.88;;;33.68;24.81
41690;BME280;27372;42.658;23.256;2023-07-29T11:15:16;93614.06;;;35.40;22.04
41690;BME280;27372;42.658;23.256;2023-07-29T11:17:44;93612.00;;;35.63;21.83
41690;BME280;27372;42.658;23.256;2023-07-29T11:20:10;93607.09;;;35.92;21.43
41690;BME280;27372;42.658;23.256;2023-07-29T11:22:37;93600.06;;;36.36;21.61
41690;BME280;27372;42.658;23.256;2023-07-29T11:25:03;93600.06;;;36.36;20.68
41690;BME280;27372;42.658;23.256;2023-07-29T11:27:28;93608.84;;;34.97;22.18
41690;BME280;27372;42.658;23.256;2023-07-29T11:29:57;93609.94;;;36.65;20.56
41690;BME280;27372;42.658;23.256;2023-07-29T11:32:23;93606.47;;;37.26;20.32
41690;BME280;27372;42.658;23.256;2023-07-29T11:34:49;93599.41;;;36.63;19.83
41690;BME280;27372;42.658;23.256;2023-07-29T11:37:14;93605.13;;;37.66;19.67
41690;BME280;27372;42.658;23.256;2023-07-29T11:39:43;93597.81;;;37.32;20.11
41690;BME280;27372;42.658;23.256;2023-07-29T11:42:12;93586.03;;;37.86;19.49
41690;BME280;27372;42.658;23.256;2023-07-29T11:44:38;93593.75;;;38.42;19.02
41690;BME280;27372;42.658;23.256;2023-07-29T11:47:10;93588.75;;;37.89;19.48
41690;BME280;27372;42.658;23.256;2023-07-29T11:49:35;93587.25;;;37.30;19.96
41690;BME280;27372;42.658;23.256;2023-07-29T11:52:02;93584.69;;;38.45;19.02
41690;BME280;27372;42.658;23.256;2023-07-29T11:54:31;93585.44;;;39.06;18.59
41690;BME280;27372;42.658;23.256;2023-07-29T11:56:56;93585.78;;;38.68;18.06
41690;BME280;27372;42.658;23.256;2023-07-29T11:59:21;93577.97;;;38.02;18.72
41690;BME280;27372;42.658;23.256;2023-07-29T12:01:47;93575.75;;;39.02;17.94
41690;BME280;27372;42.658;23.256;2023-07-29T12:04:12;93569.66;;;39.64;16.92
41690;BME280;27372;42.658;23.256;2023-07-29T12:06:38;93567.03;;;39.93;17.24
41690;BME280;27372;42.658;23.256;2023-07-29T12:09:04;93568.81;;;40.16;16.88
41690;BME280;27372;42.658;23.256;2023-07-29T12:11:29;93566.47;;;40.15;16.55
41690;BME280;27372;42.658;23.256;2023-07-29T12:13:55;93569.47;;;40.66;16.45
41690;BME280;27372;42.658;23.256;2023-07-29T12:16:20;93562.19;;;41.02;16.06
41690;BME280;27372;42.658;23.256;2023-07-29T12:18:45;93560.34;;;39.78;17.02
41690;BME280;27372;42.658;23.256;2023-07-29T12:21:13;93564.09;;;40.76;16.75
41690;BME280;27372;42.658;23.256;2023-07-29T12:23:38;93561.22;;;41.09;16.31
41690;BME280;27372;42.658;23.256;2023-07-29T12:26:04;93556.47;;;40.67;15.77
41690;BME280;27372;42.658;23.256;2023-07-29T12:28:29;93550.41;;;40.59;16.62
41690;BME280;27372;42.658;23.256;2023-07-29T12:30:58;93554.41;;;41.13;16.36
41690;BME280;27372;42.658;23.256;2023-07-29T12:33:42;93552.75;;;41.68;15.51
41690;BME280;27372;42.658;23.256;2023-07-29T12:36:07;93560.28;;;40.86;16.21
41690;BME280;27372;42.658;23.256;2023-07-29T12:38:32;93553.97;;;40.73;16.15
41690;BME280;27372;42.658;23.256;2023-07-29T12:40:58;93564.09;;;41.44;15.52
41690;BME280;27372;42.658;23.256;2023-07-29T12:43:23;93566.16;;;41.14;15.95
41690;BME280;27372;42.658;23.256;2023-07-29T12:45:49;93565.50;;;39.75;16.59
41690;BME280;27372;42.658;23.256;2023-07-29T12:48:15;93562.78;;;40.67;16.17
41690;BME280;27372;42.658;23.256;2023-07-29T12:50:40;93563.31;;;41.95;15.03
41690;BME280;27372;42.658;23.256;2023-07-29T12:53:06;93560.25;;;41.28;15.32
41690;BME280;27372;42.658;23.256;2023-07-29T12:55:31;93555.44;;;39.85;16.31
41690;BME280;27372;42.658;23.256;2023-07-29T12:57:57;93559.69;;;41.21;15.96
41690;BME280;27372;42.658;23.256;2023-07-29T13:00:24;93556.19;;;40.78;15.82
41690;BME280;27372;42.658;23.256;2023-07-29T13:02:49;93560.78;;;40.39;16.42
41690;BME280;27372;42.658;23.256;2023-07-29T13:05:14;93562.31;;;39.60;16.03
41690;BME280;27372;42.658;23.256;2023-07-29T13:07:40;93557.41;;;40.01;16.33
41690;BME280;27372;42.658;23.256;2023-07-29T13:10:11;93555.66;;;40.96;15.99
41690;BME280;27372;42.658;23.256;2023-07-29T13:12:42;93542.88;;;40.47;16.21
41690;BME280;27372;42.658;23.256;2023-07-29T13:15:07;93542.84;;;41.06;15.88